createdAt,value
2018-03-27T00:00:00.123Z,100703.81
2018-03-27T00:01:02.629Z,100703.60
2018-03-27T00:02:05.118Z,100703.11
2018-03-27T00:03:07.588Z,100701.16
2018-03-27T00:04:10.072Z,100700.08
2018-03-27T00:05:16.513Z,100700.98
2018-03-27T00:06:18.987Z,100704.77
2018-03-27T00:07:21.478Z,100707.48
2018-03-27T00:08:23.989Z,100706.09
2018-03-27T00:09:26.474Z,100702.27
2018-03-27T00:10:28.996Z,100706.02
2018-03-27T00:11:31.484Z,100700.41
2018-03-27T00:12:33.975Z,100703.80
2018-03-27T00:13:36.458Z,100699.34
2018-03-27T00:14:38.942Z,100703.71
2018-03-27T00:15:41.452Z,100704.12
2018-03-27T00:16:43.942Z,100692.52
2018-03-27T00:17:46.459Z,100689.94
2018-03-27T00:18:49.703Z,100699.41
2018-03-27T00:19:52.176Z,100699.17
2018-03-27T00:20:54.680Z,100697.56
2018-03-27T00:21:57.192Z,100693.76
2018-03-27T00:22:59.709Z,100693.11
2018-03-27T00:24:02.230Z,100699.60
2018-03-27T00:25:04.728Z,100706.25
2018-03-27T00:26:07.220Z,100701.87
2018-03-27T00:27:09.191Z,100702.75
2018-03-27T00:28:23.606Z,100706.41
2018-03-27T00:29:37.970Z,100708.27
2018-03-27T00:30:52.537Z,100707.23
2018-03-27T00:32:06.756Z,100700.67
2018-03-27T00:33:20.977Z,100709.09
2018-03-27T00:34:35.141Z,100707.72
2018-03-27T00:35:49.531Z,100706.84
2018-03-27T00:37:03.884Z,100706.00
2018-03-27T00:38:18.330Z,100703.17
2018-03-27T00:39:32.766Z,100706.49
2018-03-27T00:40:42.733Z,100706.22
2018-03-27T00:43:33.279Z,100706.23
2018-03-27T00:44:35.785Z,100709.72
2018-03-27T00:45:38.293Z,100705.11
2018-03-27T00:46:40.782Z,100704.47
2018-03-27T00:47:43.289Z,100703.66
2018-03-27T00:48:45.794Z,100704.16
2018-03-27T00:49:48.280Z,100704.31
2018-03-27T00:50:50.763Z,100706.27
2018-03-27T00:51:53.232Z,100711.09
2018-03-27T00:52:55.724Z,100705.34
2018-03-27T00:53:58.226Z,100711.59
2018-03-27T00:55:00.696Z,100708.19
2018-03-27T00:56:03.200Z,100704.46
2018-03-27T00:57:05.697Z,100707.22
2018-03-27T00:58:08.192Z,100702.52
2018-03-27T00:59:10.660Z,100704.94
2018-03-27T01:00:13.169Z,100705.53
2018-03-27T01:01:15.640Z,100703.57
2018-03-27T01:02:18.142Z,100700.56
2018-03-27T01:03:20.664Z,100696.85
2018-03-27T01:04:23.174Z,100692.81
2018-03-27T01:05:25.670Z,100696.92
2018-03-27T01:06:28.159Z,100690.86
2018-03-27T01:07:30.646Z,100687.67
2018-03-27T01:08:33.176Z,100693.73
2018-03-27T01:09:35.674Z,100692.84
2018-03-27T01:10:38.178Z,100689.25
2018-03-27T01:11:40.671Z,100692.69
2018-03-27T01:12:43.152Z,100693.16
2018-03-27T01:13:45.636Z,100691.05
2018-03-27T01:14:48.126Z,100686.17
2018-03-27T01:15:50.600Z,100681.80
2018-03-27T01:16:53.086Z,100685.53
2018-03-27T01:17:55.586Z,100684.72
2018-03-27T01:18:58.103Z,100686.03
2018-03-27T01:20:00.610Z,100685.22
2018-03-27T01:21:03.112Z,100684.55
2018-03-27T01:22:05.596Z,100680.75
2018-03-27T01:23:08.073Z,100677.98
2018-03-27T01:24:10.581Z,100681.65
2018-03-27T01:25:13.084Z,100680.60
2018-03-27T01:26:15.579Z,100686.45
2018-03-27T01:27:18.090Z,100681.83
2018-03-27T01:28:20.579Z,100678.44
2018-03-27T01:29:23.087Z,100676.17
2018-03-27T01:30:25.579Z,100678.93
2018-03-27T01:31:28.070Z,100679.43
2018-03-27T01:32:30.585Z,100677.95
2018-03-27T01:33:33.089Z,100680.47
2018-03-27T01:34:35.602Z,100674.72
2018-03-27T01:35:38.155Z,100675.05
2018-03-27T01:36:40.616Z,100678.53
2018-03-27T01:37:43.107Z,100671.00
2018-03-27T01:38:45.577Z,100675.14
2018-03-27T01:39:48.084Z,100674.50
2018-03-27T01:40:50.574Z,100674.25
2018-03-27T01:41:53.056Z,100664.37
2018-03-27T01:42:55.528Z,100670.19
2018-03-27T01:43:58.007Z,100668.33
2018-03-27T01:45:00.533Z,100662.72
2018-03-27T01:46:03.023Z,100670.50
2018-03-27T01:47:05.523Z,100661.36
2018-03-27T01:48:08.016Z,100668.73
2018-03-27T01:49:10.522Z,100663.31
2018-03-27T01:50:13.024Z,100667.37
2018-03-27T01:51:15.506Z,100662.77
2018-03-27T01:52:18.001Z,100673.38
2018-03-27T01:53:20.513Z,100666.09
2018-03-27T01:54:23.004Z,100666.00
2018-03-27T01:55:25.519Z,100663.39
2018-03-27T01:56:28.001Z,100660.13
2018-03-27T01:57:30.472Z,100662.43
2018-03-27T01:58:32.948Z,100666.14
2018-03-27T01:59:35.456Z,100660.37
2018-03-27T02:00:37.976Z,100659.81
2018-03-27T02:01:40.444Z,100654.04
2018-03-27T02:02:42.935Z,100660.03
2018-03-27T02:03:45.418Z,100652.71
2018-03-27T02:04:47.906Z,100654.16
2018-03-27T02:05:50.414Z,100654.66
2018-03-27T02:06:52.896Z,100658.63
2018-03-27T02:07:55.398Z,100655.88
2018-03-27T02:08:57.900Z,100651.58
2018-03-27T02:10:00.391Z,100655.30
2018-03-27T02:11:08.568Z,100653.69
2018-03-27T02:12:16.774Z,100651.64
2018-03-27T02:13:24.943Z,100653.11
2018-03-27T02:14:33.159Z,100656.44
2018-03-27T02:15:41.243Z,100659.12
2018-03-27T02:16:49.476Z,100653.95
2018-03-27T02:17:57.527Z,100658.01
2018-03-27T02:19:05.706Z,100656.16
2018-03-27T02:20:13.842Z,100657.86
2018-03-27T02:21:21.954Z,100653.79
2018-03-27T02:22:24.455Z,100649.98
2018-03-27T02:23:41.442Z,100653.24
2018-03-27T02:24:43.930Z,100653.17
2018-03-27T02:25:46.426Z,100657.80
2018-03-27T02:26:48.932Z,100653.42
2018-03-27T02:27:51.502Z,100652.14
2018-03-27T02:28:53.961Z,100656.17
2018-03-27T02:29:56.470Z,100650.02
2018-03-27T02:30:58.970Z,100649.91
2018-03-27T02:32:01.532Z,100649.44
2018-03-27T02:33:04.051Z,100652.12
2018-03-27T02:34:06.546Z,100651.48
2018-03-27T02:35:09.059Z,100655.53
2018-03-27T02:36:11.555Z,100651.49
2018-03-27T02:37:14.040Z,100648.50
2018-03-27T02:38:16.601Z,100652.39
2018-03-27T02:39:19.074Z,100653.13
2018-03-27T02:40:21.581Z,100652.62
2018-03-27T02:41:24.082Z,100645.89
2018-03-27T02:42:26.560Z,100648.98
2018-03-27T02:43:29.088Z,100645.18
2018-03-27T02:44:31.579Z,100649.64
2018-03-27T02:45:34.060Z,100646.23
2018-03-27T02:46:36.540Z,100639.12
2018-03-27T02:47:39.027Z,100638.38
2018-03-27T02:48:41.537Z,100644.53
2018-03-27T02:49:44.009Z,100642.91
2018-03-27T02:50:46.513Z,100647.75
2018-03-27T02:51:49.002Z,100642.66
2018-03-27T02:52:51.514Z,100646.69
2018-03-27T02:53:54.030Z,100642.16
2018-03-27T02:54:56.505Z,100638.28
2018-03-27T02:55:58.995Z,100641.98
2018-03-27T02:57:01.488Z,100642.94
2018-03-27T02:58:03.993Z,100644.82
2018-03-27T02:59:06.511Z,100646.34
2018-03-27T03:00:08.992Z,100647.55
2018-03-27T03:01:11.496Z,100640.91
2018-03-27T03:02:14.014Z,100646.32
2018-03-27T03:03:16.508Z,100638.79
2018-03-27T03:04:19.033Z,100639.02
2018-03-27T03:05:21.525Z,100644.30
2018-03-27T03:06:24.057Z,100636.60
2018-03-27T03:07:26.528Z,100645.03
2018-03-27T03:08:29.033Z,100639.69
2018-03-27T03:09:31.543Z,100635.72
2018-03-27T03:10:34.032Z,100639.63
2018-03-27T03:11:36.544Z,100634.20
2018-03-27T03:12:39.020Z,100641.83
2018-03-27T03:13:41.524Z,100634.03
2018-03-27T03:14:44.051Z,100636.14
2018-03-27T03:15:46.550Z,100635.09
2018-03-27T03:16:49.024Z,100633.48
2018-03-27T03:17:51.506Z,100631.62
2018-03-27T03:18:53.995Z,100627.99
2018-03-27T03:19:56.512Z,100629.84
2018-03-27T03:20:59.024Z,100631.55
2018-03-27T03:22:01.496Z,100633.05
2018-03-27T03:23:03.968Z,100632.58
2018-03-27T03:24:06.463Z,100632.50
2018-03-27T03:25:08.959Z,100637.78
2018-03-27T03:26:11.454Z,100640.70
2018-03-27T03:27:13.944Z,100640.63
2018-03-27T03:28:16.450Z,100635.28
2018-03-27T03:29:19.037Z,100638.53
2018-03-27T03:30:21.541Z,100630.77
2018-03-27T03:31:24.050Z,100633.68
2018-03-27T03:32:26.541Z,100629.31
2018-03-27T03:33:29.051Z,100627.83
2018-03-27T03:34:31.532Z,100630.51
2018-03-27T03:35:34.057Z,100625.33
2018-03-27T03:36:36.589Z,100625.50
2018-03-27T03:37:39.097Z,100630.20
2018-03-27T03:38:41.594Z,100633.19
2018-03-27T03:39:44.086Z,100628.89
2018-03-27T03:40:46.612Z,100630.75
2018-03-27T03:41:49.099Z,100631.33
2018-03-27T03:42:51.621Z,100631.39
2018-03-27T03:43:54.095Z,100625.69
2018-03-27T03:44:56.587Z,100628.16
2018-03-27T03:45:59.094Z,100629.59
2018-03-27T03:47:01.592Z,100636.05
2018-03-27T03:48:04.101Z,100630.31
2018-03-27T03:49:06.576Z,100636.70
2018-03-27T03:50:09.066Z,100634.41
2018-03-27T03:51:11.588Z,100625.81
2018-03-27T03:52:14.074Z,100629.78
2018-03-27T03:53:16.571Z,100632.54
2018-03-27T03:54:19.055Z,100634.73
2018-03-27T03:55:21.560Z,100625.25
2018-03-27T03:56:24.071Z,100634.09
2018-03-27T03:57:26.584Z,100631.09
2018-03-27T03:58:29.082Z,100634.82
2018-03-27T03:59:31.557Z,100634.17
2018-03-27T04:00:34.042Z,100633.70
2018-03-27T04:01:36.541Z,100631.69
2018-03-27T04:02:39.120Z,100628.69
2018-03-27T04:03:41.611Z,100626.57
2018-03-27T04:04:44.176Z,100624.95
2018-03-27T04:05:46.670Z,100629.59
2018-03-27T04:06:49.179Z,100628.54
2018-03-27T04:07:51.656Z,100625.88
2018-03-27T04:08:54.146Z,100622.31
2018-03-27T04:09:56.644Z,100621.97
2018-03-27T04:10:59.138Z,100622.70
2018-03-27T04:12:01.628Z,100620.98
2018-03-27T04:13:04.123Z,100620.34
2018-03-27T04:14:06.603Z,100619.87
2018-03-27T04:15:09.088Z,100620.04
2018-03-27T04:16:11.590Z,100620.94
2018-03-27T04:17:14.105Z,100626.20
2018-03-27T04:18:16.576Z,100622.23
2018-03-27T04:19:19.052Z,100622.98
2018-03-27T04:20:21.541Z,100617.16
2018-03-27T04:21:24.023Z,100625.18
2018-03-27T04:22:26.528Z,100625.48
2018-03-27T04:23:29.004Z,100618.52
2018-03-27T04:24:31.536Z,100616.42
2018-03-27T04:25:34.010Z,100614.00
2018-03-27T04:26:36.498Z,100611.98
2018-03-27T04:27:39.003Z,100615.64
2018-03-27T04:28:41.501Z,100616.37
2018-03-27T04:29:43.977Z,100613.55
2018-03-27T04:30:46.449Z,100610.63
2018-03-27T04:31:48.942Z,100607.14
2018-03-27T04:32:51.447Z,100613.52
2018-03-27T04:33:53.934Z,100611.32
2018-03-27T04:34:56.426Z,100611.55
2018-03-27T04:35:58.925Z,100607.90
2018-03-27T04:37:01.419Z,100607.31
2018-03-27T04:38:03.920Z,100607.32
2018-03-27T04:39:06.458Z,100603.44
2018-03-27T04:40:08.960Z,100602.94
2018-03-27T04:41:11.468Z,100597.33
2018-03-27T04:42:13.965Z,100595.05
2018-03-27T04:43:16.467Z,100603.79
2018-03-27T04:44:19.058Z,100598.69
2018-03-27T04:45:21.547Z,100605.27
2018-03-27T04:46:24.025Z,100594.48
2018-03-27T04:47:26.532Z,100597.00
2018-03-27T04:48:29.053Z,100600.73
2018-03-27T04:49:31.528Z,100597.17
2018-03-27T04:50:34.029Z,100598.28
2018-03-27T04:51:36.520Z,100599.02
2018-03-27T04:52:39.006Z,100594.81
2018-03-27T04:53:41.533Z,100601.87
2018-03-27T04:54:44.040Z,100598.88
2018-03-27T04:55:46.562Z,100596.21
2018-03-27T04:56:49.048Z,100601.08
2018-03-27T04:57:51.536Z,100593.95
2018-03-27T04:58:54.111Z,100587.53
2018-03-27T04:59:56.596Z,100587.88
2018-03-27T05:00:59.112Z,100590.92
2018-03-27T05:02:01.602Z,100598.95
2018-03-27T05:03:04.109Z,100593.61
2018-03-27T05:04:06.638Z,100590.38
2018-03-27T05:05:09.116Z,100589.34
2018-03-27T05:06:11.624Z,100594.60
2018-03-27T05:07:14.114Z,100593.56
2018-03-27T05:08:16.604Z,100587.00
2018-03-27T05:09:19.120Z,100591.06
2018-03-27T05:10:21.606Z,100590.99
2018-03-27T05:11:24.109Z,100594.05
2018-03-27T05:12:26.606Z,100593.00
2018-03-27T05:13:29.120Z,100584.66
2018-03-27T05:14:31.698Z,100592.86
2018-03-27T05:15:34.172Z,100591.41
2018-03-27T05:16:36.648Z,100587.61
2018-03-27T05:17:39.135Z,100588.74
2018-03-27T05:18:41.645Z,100588.10
2018-03-27T05:19:44.176Z,100579.84
2018-03-27T05:20:46.661Z,100581.29
2018-03-27T05:21:49.150Z,100583.38
2018-03-27T05:22:51.651Z,100588.00
2018-03-27T05:23:54.152Z,100584.66
2018-03-27T05:24:56.666Z,100589.17
2018-03-27T05:25:59.152Z,100584.20
2018-03-27T05:27:01.634Z,100587.41
2018-03-27T05:28:04.138Z,100581.87
2018-03-27T05:29:06.627Z,100582.34
2018-03-27T05:30:09.214Z,100578.92
2018-03-27T05:31:11.698Z,100580.06
2018-03-27T05:32:14.209Z,100580.38
2018-03-27T05:33:16.777Z,100584.08
2018-03-27T05:34:19.282Z,100582.36
2018-03-27T05:35:21.805Z,100582.20
2018-03-27T05:36:24.307Z,100577.02
2018-03-27T05:37:26.781Z,100578.56
2018-03-27T05:38:29.277Z,100574.94
2018-03-27T05:39:31.745Z,100577.22
2018-03-27T05:40:34.248Z,100575.91
2018-03-27T05:41:36.737Z,100577.05
2018-03-27T05:42:39.253Z,100582.48
2018-03-27T05:43:41.756Z,100578.45
2018-03-27T05:44:44.247Z,100576.41
2018-03-27T05:45:46.780Z,100574.39
2018-03-27T05:46:49.271Z,100572.77
2018-03-27T05:47:51.763Z,100571.32
2018-03-27T05:48:54.247Z,100575.72
2018-03-27T05:49:56.750Z,100572.95
2018-03-27T05:50:59.281Z,100572.62
2018-03-27T05:52:01.756Z,100576.44
2018-03-27T05:53:04.246Z,100575.97
2018-03-27T05:54:06.744Z,100577.27
2018-03-27T05:55:09.251Z,100579.14
2018-03-27T05:56:11.767Z,100568.63
2018-03-27T05:57:14.261Z,100572.28
2018-03-27T05:58:16.761Z,100568.05
2018-03-27T05:59:19.241Z,100571.70
2018-03-27T06:00:21.734Z,100575.19
2018-03-27T06:01:24.246Z,100567.09
2018-03-27T06:02:26.757Z,100575.28
2018-03-27T06:03:29.272Z,100570.27
2018-03-27T06:04:31.760Z,100566.07
2018-03-27T06:05:34.235Z,100573.69
2018-03-27T06:06:36.742Z,100567.94
2018-03-27T06:07:39.245Z,100570.19
2018-03-27T06:08:41.735Z,100568.74
2018-03-27T06:09:44.240Z,100573.44
2018-03-27T06:10:46.768Z,100571.75
2018-03-27T06:11:49.278Z,100566.00
2018-03-27T06:12:51.770Z,100564.55
2018-03-27T06:13:54.255Z,100559.78
2018-03-27T06:14:56.739Z,100562.87
2018-03-27T06:15:59.222Z,100563.60
2018-03-27T06:17:01.752Z,100563.36
2018-03-27T06:18:04.246Z,100561.48
2018-03-27T06:19:06.725Z,100564.39
2018-03-27T06:20:09.196Z,100567.88
2018-03-27T06:21:11.680Z,100569.98
2018-03-27T06:22:14.216Z,100567.97
2018-03-27T06:23:16.693Z,100566.52
2018-03-27T06:24:19.178Z,100565.87
2018-03-27T06:25:21.675Z,100560.94
2018-03-27T06:26:24.208Z,100564.83
2018-03-27T06:27:26.728Z,100558.11
2018-03-27T06:28:29.238Z,100559.82
2018-03-27T06:29:31.724Z,100557.63
2018-03-27T06:30:34.234Z,100555.61
2018-03-27T06:31:36.745Z,100559.34
2018-03-27T06:32:39.248Z,100554.94
2018-03-27T06:33:41.753Z,100557.45
2018-03-27T06:34:44.252Z,100556.24
2018-03-27T06:35:46.742Z,100550.33
2018-03-27T06:36:49.238Z,100550.91
2018-03-27T06:37:51.770Z,100547.34
2018-03-27T06:38:54.276Z,100549.86
2018-03-27T06:39:56.751Z,100551.80
2018-03-27T06:40:59.221Z,100548.81
2018-03-27T06:42:01.781Z,100548.16
2018-03-27T06:43:04.254Z,100545.98
2018-03-27T06:44:06.831Z,100545.58
2018-03-27T06:45:09.336Z,100545.74
2018-03-27T06:46:11.844Z,100543.97
2018-03-27T06:47:14.316Z,100540.56
2018-03-27T06:48:16.841Z,100542.34
2018-03-27T06:49:19.326Z,100541.30
2018-03-27T06:50:21.808Z,100540.49
2018-03-27T06:51:24.297Z,100544.63
2018-03-27T06:52:26.869Z,100537.66
2018-03-27T06:53:29.406Z,100540.02
2018-03-27T06:54:31.913Z,100541.95
2018-03-27T06:55:34.410Z,100541.15
2018-03-27T06:56:36.911Z,100539.91
2018-03-27T06:57:39.423Z,100542.83
2018-03-27T06:58:41.945Z,100546.70
2018-03-27T06:59:44.422Z,100542.75
2018-03-27T07:00:46.916Z,100542.91
2018-03-27T07:01:49.418Z,100545.26
2018-03-27T07:02:51.930Z,100546.80
2018-03-27T07:03:54.449Z,100545.98
2018-03-27T07:04:56.944Z,100548.34
2018-03-27T07:05:59.436Z,100544.78
2018-03-27T07:07:01.922Z,100548.09
2018-03-27T07:08:04.420Z,100553.20
2018-03-27T07:09:06.972Z,100557.48
2018-03-27T07:10:09.478Z,100549.39
2018-03-27T07:11:12.026Z,100550.77
2018-03-27T07:12:14.496Z,100551.34
2018-03-27T07:13:17.039Z,100545.03
2018-03-27T07:14:19.553Z,100544.19
2018-03-27T07:15:22.060Z,100542.81
2018-03-27T07:16:24.540Z,100546.13
2018-03-27T07:17:27.023Z,100542.58
2018-03-27T07:18:29.502Z,100538.61
2018-03-27T07:19:32.028Z,100538.77
2018-03-27T07:20:34.539Z,100539.18
2018-03-27T07:21:37.045Z,100537.00
2018-03-27T07:22:39.552Z,100537.00
2018-03-27T07:23:42.164Z,100541.13
2018-03-27T07:24:44.692Z,100539.91
2018-03-27T07:25:47.205Z,100540.48
2018-03-27T07:26:49.708Z,100538.94
2018-03-27T07:27:52.192Z,100533.60
2018-03-27T07:28:54.696Z,100527.70
2018-03-27T07:29:57.203Z,100525.75
2018-03-27T07:30:59.704Z,100529.47
2018-03-27T07:32:02.204Z,100528.09
2018-03-27T07:33:04.708Z,100522.73
2018-03-27T07:34:07.185Z,100525.08
2018-03-27T07:35:09.714Z,100523.70
2018-03-27T07:36:12.211Z,100525.64
2018-03-27T07:37:14.722Z,100523.87
2018-03-27T07:38:17.222Z,100524.67
2018-03-27T07:39:19.714Z,100524.11
2018-03-27T07:40:22.248Z,100518.77
2018-03-27T07:41:24.720Z,100521.92
2018-03-27T07:42:27.205Z,100520.14
2018-03-27T07:43:29.680Z,100519.58
2018-03-27T07:44:32.223Z,100520.55
2018-03-27T07:45:34.726Z,100520.55
2018-03-27T07:46:37.299Z,100515.45
2018-03-27T07:47:39.813Z,100510.52
2018-03-27T07:48:42.309Z,100510.52
2018-03-27T07:49:44.808Z,100508.73
2018-03-27T07:50:47.326Z,100508.58
2018-03-27T07:51:49.814Z,100505.98
2018-03-27T07:52:52.321Z,100501.63
2018-03-27T07:53:54.810Z,100497.90
2018-03-27T07:54:57.283Z,100502.19
2018-03-27T07:55:59.787Z,100497.66
2018-03-27T07:57:02.298Z,100501.38
2018-03-27T07:58:04.784Z,100497.66
2018-03-27T07:59:07.265Z,100496.45
2018-03-27T08:00:09.748Z,100496.21
2018-03-27T08:01:12.244Z,100492.08
2018-03-27T08:02:14.735Z,100487.80
2018-03-27T08:03:17.290Z,100490.88
2018-03-27T08:04:19.803Z,100483.76
2018-03-27T08:05:22.310Z,100482.95
2018-03-27T08:06:24.823Z,100478.42
2018-03-27T08:07:27.308Z,100477.21
2018-03-27T08:08:29.791Z,100473.25
2018-03-27T08:09:32.281Z,100475.59
2018-03-27T08:10:34.774Z,100472.61
2018-03-27T08:11:37.273Z,100470.83
2018-03-27T08:12:39.745Z,100470.19
2018-03-27T08:13:42.230Z,100466.06
2018-03-27T08:14:44.738Z,100458.70
2018-03-27T08:15:47.230Z,100465.41
2018-03-27T08:16:49.740Z,100463.80
2018-03-27T08:17:52.244Z,100459.00
2018-03-27T08:18:54.769Z,100455.84
2018-03-27T08:19:57.303Z,100452.29
2018-03-27T08:20:59.784Z,100453.26
2018-03-27T08:22:02.321Z,100451.88
2018-03-27T08:23:04.862Z,100457.39
2018-03-27T08:24:07.404Z,100445.98
2018-03-27T08:25:09.903Z,100454.80
2018-03-27T08:26:12.433Z,100446.55
2018-03-27T08:27:14.971Z,100440.48
2018-03-27T08:28:17.630Z,100444.37
2018-03-27T08:29:20.179Z,100441.05
2018-03-27T08:30:22.652Z,100441.45
2018-03-27T08:31:25.153Z,100446.55
2018-03-27T08:32:27.663Z,100444.77
2018-03-27T08:33:30.176Z,100442.02
2018-03-27T08:34:32.673Z,100440.64
2018-03-27T08:35:35.191Z,100433.94
2018-03-27T08:36:37.691Z,100433.13
2018-03-27T08:37:40.216Z,100437.82
2018-03-27T08:38:42.700Z,100436.45
2018-03-27T08:39:45.213Z,100435.23
2018-03-27T08:40:47.717Z,100427.15
2018-03-27T08:41:50.217Z,100430.06
2018-03-27T08:42:52.741Z,100428.28
2018-03-27T08:43:55.241Z,100425.13
2018-03-27T08:44:57.717Z,100426.67
2018-03-27T08:46:00.188Z,100427.08
2018-03-27T08:47:02.737Z,100422.14
2018-03-27T08:48:05.264Z,100425.86
2018-03-27T08:49:07.755Z,100421.91
2018-03-27T08:50:10.242Z,100426.03
2018-03-27T08:51:12.725Z,100421.27
2018-03-27T08:52:15.233Z,100423.45
2018-03-27T08:53:17.748Z,100419.89
2018-03-27T08:54:20.243Z,100414.95
2018-03-27T08:55:22.735Z,100416.33
2018-03-27T08:56:25.242Z,100420.05
2018-03-27T08:57:27.744Z,100411.97
2018-03-27T08:58:30.267Z,100412.13
2018-03-27T08:59:32.784Z,100413.27
2018-03-27T09:00:35.281Z,100414.23
2018-03-27T09:01:37.785Z,100402.84
2018-03-27T09:02:40.288Z,100410.11
2018-03-27T09:03:42.855Z,100406.16
2018-03-27T09:04:45.301Z,100404.21
2018-03-27T09:05:47.794Z,100409.30
2018-03-27T09:06:50.264Z,100410.52
2018-03-27T09:07:52.757Z,100404.61
2018-03-27T09:08:55.248Z,100404.05
2018-03-27T09:09:57.752Z,100405.66
2018-03-27T09:11:00.239Z,100403.55
2018-03-27T09:12:02.764Z,100399.27
2018-03-27T09:13:05.274Z,100399.10
2018-03-27T09:14:07.814Z,100403.06
2018-03-27T09:15:10.339Z,100399.17
2018-03-27T09:16:12.850Z,100399.58
2018-03-27T09:17:15.328Z,100404.91
2018-03-27T09:18:17.812Z,100398.04
2018-03-27T09:19:20.347Z,100397.88
2018-03-27T09:20:22.878Z,100401.19
2018-03-27T09:21:25.398Z,100394.31
2018-03-27T09:22:27.882Z,100398.04
2018-03-27T09:23:30.366Z,100399.41
2018-03-27T09:24:32.885Z,100392.14
2018-03-27T09:25:35.413Z,100394.89
2018-03-27T09:26:37.888Z,100383.08
2018-03-27T09:27:40.362Z,100393.34
2018-03-27T09:28:42.919Z,100381.38
2018-03-27T09:29:45.402Z,100376.69
2018-03-27T09:30:47.894Z,100380.64
2018-03-27T09:31:50.393Z,100383.23
2018-03-27T09:32:52.901Z,100370.69
2018-03-27T09:33:55.377Z,100371.09
2018-03-27T09:34:57.868Z,100373.67
2018-03-27T09:36:00.359Z,100376.99
2018-03-27T09:37:02.848Z,100364.62
2018-03-27T09:38:05.335Z,100369.31
2018-03-27T09:39:07.835Z,100371.83
2018-03-27T09:40:10.454Z,100373.20
2018-03-27T09:41:12.954Z,100373.53
2018-03-27T09:42:15.433Z,100371.34
2018-03-27T09:43:17.924Z,100370.30
2018-03-27T09:44:20.428Z,100372.01
2018-03-27T09:45:22.943Z,100371.36
2018-03-27T09:46:25.431Z,100373.88
2018-03-27T09:47:27.945Z,100370.89
2018-03-27T09:48:30.439Z,100371.63
2018-03-27T09:49:32.926Z,100366.83
2018-03-27T09:50:35.454Z,100369.58
2018-03-27T09:51:37.957Z,100366.59
2018-03-27T09:52:40.460Z,100358.50
2018-03-27T09:53:42.956Z,100354.55
2018-03-27T09:54:45.452Z,100355.52
2018-03-27T09:55:47.955Z,100351.39
2018-03-27T09:56:50.450Z,100356.08
2018-03-27T09:57:52.925Z,100352.93
2018-03-27T09:58:55.414Z,100351.56
2018-03-27T09:59:57.902Z,100342.10
2018-03-27T10:01:00.407Z,100349.37
2018-03-27T10:02:02.892Z,100343.07
2018-03-27T10:03:05.383Z,100338.55
2018-03-27T10:04:07.871Z,100342.67
2018-03-27T10:05:10.380Z,100340.48
2018-03-27T10:06:12.890Z,100336.53
2018-03-27T10:07:15.379Z,100335.56
2018-03-27T10:08:17.896Z,100333.78
2018-03-27T10:09:20.376Z,100330.22
2018-03-27T10:10:22.887Z,100331.03
2018-03-27T10:11:25.403Z,100329.82
2018-03-27T10:12:27.891Z,100323.19
2018-03-27T10:13:30.411Z,100324.16
2018-03-27T10:14:32.899Z,100323.75
2018-03-27T10:15:35.387Z,100315.91
2018-03-27T10:16:37.913Z,100324.56
2018-03-27T10:17:40.400Z,100317.69
2018-03-27T10:18:42.904Z,100318.50
2018-03-27T10:19:45.394Z,100319.70
2018-03-27T10:20:47.892Z,100317.92
2018-03-27T10:21:50.402Z,100318.33
2018-03-27T10:22:52.901Z,100315.17
2018-03-27T10:23:55.406Z,100315.98
2018-03-27T10:24:57.881Z,100312.02
2018-03-27T10:26:00.418Z,100315.17
2018-03-27T10:27:02.935Z,100312.59
2018-03-27T10:28:05.421Z,100312.59
2018-03-27T10:29:07.933Z,100308.06
2018-03-27T10:30:10.431Z,100306.69
2018-03-27T10:31:12.926Z,100307.26
2018-03-27T10:32:15.434Z,100301.36
2018-03-27T10:33:17.937Z,100297.80
2018-03-27T10:34:20.433Z,100300.72
2018-03-27T10:35:22.918Z,100293.04
2018-03-27T10:36:25.412Z,100292.00
2018-03-27T10:37:27.919Z,100287.06
2018-03-27T10:38:30.441Z,100285.86
2018-03-27T10:39:32.926Z,100281.50
2018-03-27T10:40:35.421Z,100286.75
2018-03-27T10:41:37.909Z,100276.33
2018-03-27T10:42:40.405Z,100276.90
2018-03-27T10:43:42.912Z,100279.25
2018-03-27T10:44:45.402Z,100276.62
2018-03-27T10:45:47.915Z,100269.52
2018-03-27T10:46:50.410Z,100268.72
2018-03-27T10:47:52.914Z,100265.56
2018-03-27T10:48:55.408Z,100269.05
2018-03-27T10:49:57.940Z,100266.70
2018-03-27T10:51:00.435Z,100255.88
2018-03-27T10:52:02.934Z,100255.47
2018-03-27T10:53:05.440Z,100253.29
2018-03-27T10:54:07.941Z,100248.77
2018-03-27T10:55:10.434Z,100252.89
2018-03-27T10:56:12.933Z,100246.82
2018-03-27T10:57:15.426Z,100250.14
2018-03-27T10:58:17.924Z,100239.95
2018-03-27T10:59:20.420Z,100238.00
2018-03-27T11:00:22.931Z,100239.55
2018-03-27T11:01:25.434Z,100236.23
2018-03-27T11:02:27.940Z,100236.23
2018-03-27T11:03:30.470Z,100223.46
2018-03-27T11:04:32.982Z,100226.20
2018-03-27T11:05:35.481Z,100219.34
2018-03-27T11:06:37.974Z,100223.22
2018-03-27T11:07:40.483Z,100218.30
2018-03-27T11:08:42.999Z,100212.23
2018-03-27T11:09:45.500Z,100214.17
2018-03-27T11:10:47.991Z,100212.23
2018-03-27T11:11:50.499Z,100210.85
2018-03-27T11:12:52.976Z,100207.94
2018-03-27T11:13:55.468Z,100203.25
2018-03-27T11:14:57.954Z,100198.96
2018-03-27T11:16:00.448Z,100200.73
2018-03-27T11:17:02.934Z,100199.77
2018-03-27T11:18:05.416Z,100194.10
2018-03-27T11:19:07.931Z,100198.80
2018-03-27T11:20:10.474Z,100189.58
2018-03-27T11:21:12.966Z,100195.48
2018-03-27T11:22:15.498Z,100200.41
2018-03-27T11:23:18.122Z,100198.86
2018-03-27T11:24:20.655Z,100189.52
2018-03-27T11:25:23.174Z,100193.63
2018-03-27T11:26:25.672Z,100189.75
2018-03-27T11:27:28.176Z,100187.00
2018-03-27T11:28:30.751Z,100185.22
2018-03-27T11:29:33.281Z,100185.79
2018-03-27T11:30:35.757Z,100187.70
2018-03-27T11:31:38.244Z,100182.77
2018-03-27T11:32:40.754Z,100178.41
2018-03-27T11:33:43.247Z,100180.36
2018-03-27T11:34:45.759Z,100176.41
2018-03-27T11:35:48.281Z,100175.59
2018-03-27T11:36:50.774Z,100174.22
2018-03-27T11:37:53.278Z,100173.98
2018-03-27T11:38:55.783Z,100165.17
2018-03-27T11:39:58.291Z,100166.72
2018-03-27T11:41:00.770Z,100168.89
2018-03-27T11:42:03.265Z,100169.86
2018-03-27T11:43:05.748Z,100165.58
2018-03-27T11:44:08.235Z,100163.63
2018-03-27T11:45:10.751Z,100164.20
2018-03-27T11:46:13.257Z,100157.90
2018-03-27T11:47:15.751Z,100155.16
2018-03-27T11:48:18.307Z,100150.62
2018-03-27T11:49:20.744Z,100154.19
2018-03-27T11:50:23.250Z,100140.03
2018-03-27T11:51:25.720Z,100144.96
2018-03-27T11:52:28.290Z,100142.05
2018-03-27T11:53:30.964Z,100141.64
2018-03-27T11:54:33.464Z,100137.92
2018-03-27T11:55:35.957Z,100137.92
2018-03-27T11:56:38.463Z,100132.42
2018-03-27T11:57:40.968Z,100128.31